createdAt,value
2022-08-19T00:01:28.546Z,71.83
2022-08-19T00:03:47.575Z,72.19
2022-08-19T00:06:04.975Z,72.09
2022-08-19T00:08:33.393Z,72.35
2022-08-19T00:10:52.731Z,72.46
2022-08-19T00:13:10.163Z,72.81
2022-08-19T00:15:27.561Z,73.17
2022-08-19T00:17:44.714Z,73.20
2022-08-19T00:20:02.692Z,73.20
2022-08-19T00:22:20.872Z,73.12
2022-08-19T00:24:37.822Z,73.14
2022-08-19T00:26:54.914Z,73.47
2022-08-19T00:29:12.052Z,73.65
2022-08-19T00:31:29.409Z,73.07
2022-08-19T00:33:47.876Z,73.82
2022-08-19T00:36:05.263Z,73.19
2022-08-19T00:38:35.113Z,73.08
2022-08-19T00:40:55.120Z,73.23
2022-08-19T00:43:15.573Z,73.81
2022-08-19T00:45:32.573Z,73.91
2022-08-19T00:47:54.532Z,73.95
2022-08-19T00:50:11.620Z,74.14
2022-08-19T00:52:29.862Z,74.33
2022-08-19T00:54:52.508Z,74.53
2022-08-19T00:57:10.106Z,74.67
2022-08-19T01:00:00.849Z,74.15
2022-08-19T01:02:04.077Z,73.37
2022-08-19T01:04:21.163Z,74.30
2022-08-19T01:06:39.736Z,74.74
2022-08-19T01:08:56.805Z,74.97
2022-08-19T01:11:13.915Z,75.03
2022-08-19T01:13:44.469Z,74.46
2022-08-19T01:16:06.897Z,75.23
2022-08-19T01:18:23.992Z,74.21
2022-08-19T01:20:41.288Z,74.82
2022-08-19T01:22:59.105Z,75.30
2022-08-19T01:25:17.248Z,75.42
2022-08-19T01:27:42.912Z,75.22
2022-08-19T01:30:00.422Z,74.41
2022-08-19T01:32:32.401Z,74.70
2022-08-19T01:34:51.114Z,74.42
2022-08-19T01:37:11.345Z,75.46
2022-08-19T01:39:29.426Z,74.60
2022-08-19T01:41:46.505Z,74.62
2022-08-19T01:44:17.101Z,75.57
2022-08-19T01:46:35.928Z,75.64
2022-08-19T01:48:53.272Z,75.73
2022-08-19T01:51:10.279Z,75.90
2022-08-19T01:53:33.577Z,75.22
2022-08-19T01:55:51.409Z,76.16
2022-08-19T01:58:08.783Z,76.15
2022-08-19T02:00:26.136Z,74.99
2022-08-19T02:02:44.173Z,75.66
2022-08-19T02:05:01.597Z,76.67
2022-08-19T02:07:18.677Z,76.92
2022-08-19T02:09:36.448Z,77.29
2022-08-19T02:11:54.290Z,77.23
2022-08-19T02:14:14.945Z,76.28
2022-08-19T02:16:31.902Z,77.71
2022-08-19T02:18:51.596Z,76.16
2022-08-19T02:21:08.776Z,77.57
2022-08-19T02:23:25.698Z,77.41
2022-08-19T02:25:43.052Z,76.58
2022-08-19T02:28:00.331Z,76.64
2022-08-19T02:30:17.383Z,78.27
2022-08-19T02:32:34.417Z,78.09
2022-08-19T02:35:01.337Z,78.31
2022-08-19T02:37:18.375Z,76.43
2022-08-19T02:39:37.663Z,76.58
2022-08-19T02:41:54.780Z,76.82
2022-08-19T02:44:29.688Z,78.06
2022-08-19T02:46:49.901Z,76.93
2022-08-19T02:49:08.936Z,79.77
2022-08-19T02:51:26.297Z,78.46
2022-08-19T02:53:43.439Z,79.97
2022-08-19T02:56:00.492Z,79.24
2022-08-19T02:58:17.531Z,80.10
2022-08-19T03:00:37.753Z,80.01
2022-08-19T03:03:00.577Z,78.00
2022-08-19T03:05:18.779Z,78.05
2022-08-19T03:07:45.753Z,77.64
2022-08-19T03:10:02.800Z,78.75
2022-08-19T03:12:19.849Z,78.80
2022-08-19T03:14:36.817Z,78.41
2022-08-19T03:16:54.119Z,78.41
2022-08-19T03:19:11.152Z,77.99
2022-08-19T03:21:28.559Z,79.24
2022-08-19T03:23:45.532Z,80.22
2022-08-19T03:26:15.978Z,79.49
2022-08-19T03:28:34.170Z,79.36
2022-08-19T03:30:51.145Z,78.25
2022-08-19T03:33:09.275Z,78.54
2022-08-19T03:35:29.480Z,79.06
2022-08-19T03:37:47.923Z,79.76
2022-08-19T03:40:05.098Z,80.26
2022-08-19T03:42:32.340Z,78.43
2022-08-19T03:44:56.163Z,79.82
2022-08-19T03:47:13.161Z,79.58
2022-08-19T03:49:30.275Z,79.73
2022-08-19T03:51:47.617Z,80.01
2022-08-19T03:54:04.888Z,78.88
2022-08-19T03:56:21.991Z,78.74
2022-08-19T03:58:39.075Z,78.77
2022-08-19T04:00:58.259Z,78.25
2022-08-19T04:03:16.296Z,80.36
2022-08-19T04:05:33.529Z,77.90
2022-08-19T04:07:50.880Z,79.35
2022-08-19T04:10:08.122Z,79.78
2022-08-19T04:12:27.884Z,78.94
2022-08-19T04:14:47.597Z,80.63
2022-08-19T04:17:04.532Z,79.36
2022-08-19T04:19:21.570Z,81.16
2022-08-19T04:21:38.910Z,81.05
2022-08-19T04:23:56.013Z,81.03
2022-08-19T04:26:13.066Z,81.16
2022-08-19T04:28:30.344Z,79.68
2022-08-19T04:30:49.231Z,80.24
2022-08-19T04:33:06.301Z,80.62
2022-08-19T04:35:25.001Z,81.19
2022-08-19T04:37:43.149Z,80.93
2022-08-19T04:40:00.045Z,80.07
2022-08-19T04:42:19.653Z,80.54
2022-08-19T04:44:47.875Z,81.12
2022-08-19T04:47:10.882Z,78.65
2022-08-19T04:49:28.853Z,79.18
2022-08-19T04:51:45.905Z,79.60
2022-08-19T04:54:02.953Z,80.05
2022-08-19T04:56:20.214Z,79.45
2022-08-19T04:58:37.291Z,81.28
2022-08-19T05:00:54.336Z,81.74
2022-08-19T05:03:11.467Z,81.47
2022-08-19T05:05:29.732Z,81.27
2022-08-19T05:08:02.040Z,81.52
2022-08-19T05:10:20.336Z,79.67
2022-08-19T05:12:37.635Z,80.00
2022-08-19T05:14:55.680Z,79.80
2022-08-19T05:17:32.303Z,81.17
2022-08-19T05:19:50.505Z,81.52
2022-08-19T05:22:07.533Z,81.15
2022-08-19T05:24:25.066Z,81.01
2022-08-19T05:26:43.279Z,81.16
2022-08-19T05:29:00.370Z,81.62
2022-08-19T05:31:18.809Z,80.35
2022-08-19T05:33:36.076Z,81.82
2022-08-19T05:35:53.388Z,81.02
2022-08-19T05:38:10.413Z,81.57
2022-08-19T05:40:27.668Z,82.00
2022-08-19T05:42:45.980Z,81.63
2022-08-19T05:45:12.567Z,81.48
2022-08-19T05:47:30.949Z,82.24
2022-08-19T05:49:48.231Z,82.42
2022-08-19T05:52:05.310Z,81.87
2022-08-19T05:54:22.368Z,82.86
2022-08-19T05:56:40.355Z,82.02
2022-08-19T05:58:58.296Z,82.36
2022-08-19T06:01:16.695Z,81.44
2022-08-19T06:03:33.762Z,82.58
2022-08-19T06:05:51.979Z,82.74
2022-08-19T06:08:09.285Z,82.56
2022-08-19T06:10:26.837Z,82.12
2022-08-19T06:12:44.866Z,82.21
2022-08-19T06:15:02.394Z,80.62
2022-08-19T06:17:20.515Z,80.79
2022-08-19T06:19:40.756Z,81.82
2022-08-19T06:21:58.485Z,81.52
2022-08-19T06:24:16.945Z,82.57
2022-08-19T06:26:35.528Z,81.88
2022-08-19T06:28:52.823Z,80.42
2022-08-19T06:31:11.064Z,82.18
2022-08-19T06:33:28.431Z,80.21
2022-08-19T06:35:47.830Z,80.14
2022-08-19T06:38:06.136Z,80.53
2022-08-19T06:40:23.102Z,79.79
2022-08-19T06:42:40.353Z,80.70
2022-08-19T06:45:09.507Z,82.11
2022-08-19T06:47:28.657Z,80.41
2022-08-19T06:49:46.075Z,79.75
2022-08-19T06:52:03.126Z,80.64
2022-08-19T06:54:20.524Z,81.02
2022-08-19T06:56:38.853Z,80.74
2022-08-19T06:58:55.896Z,79.65
2022-08-19T07:01:13.236Z,78.55
2022-08-19T07:03:31.554Z,77.58
2022-08-19T07:05:49.527Z,77.25
2022-08-19T07:08:06.597Z,75.95
2022-08-19T07:10:23.712Z,74.38
2022-08-19T07:12:43.037Z,73.76
2022-08-19T07:15:00.301Z,73.25
2022-08-19T07:17:18.739Z,73.38
2022-08-19T07:19:36.781Z,70.97
2022-08-19T07:21:53.812Z,72.33
2022-08-19T07:24:11.511Z,70.57
2022-08-19T07:26:28.750Z,67.94
2022-08-19T07:28:52.835Z,66.50
2022-08-19T07:31:09.971Z,65.85
2022-08-19T07:33:27.903Z,66.75
2022-08-19T07:35:45.161Z,66.29
2022-08-19T07:38:02.477Z,66.96
2022-08-19T07:40:19.546Z,65.30
2022-08-19T07:42:36.558Z,65.71
2022-08-19T07:44:53.545Z,65.80
2022-08-19T07:47:49.241Z,65.39
2022-08-19T07:49:47.841Z,65.13
2022-08-19T07:52:04.888Z,63.96
2022-08-19T07:54:22.215Z,64.18
2022-08-19T07:56:39.183Z,63.62
2022-08-19T08:01:13.235Z,62.75
2022-08-19T08:03:31.452Z,63.06
2022-08-19T08:05:48.510Z,62.18
2022-08-19T08:08:06.741Z,62.00
2022-08-19T08:10:24.485Z,62.15
2022-08-19T08:12:42.625Z,60.88
2022-08-19T08:15:00.372Z,60.05
2022-08-19T08:17:17.401Z,60.41
2022-08-19T08:19:55.653Z,60.54
2022-08-19T08:22:12.984Z,59.98
2022-08-19T08:24:30.041Z,59.63
2022-08-19T08:26:52.066Z,59.52
2022-08-19T08:29:14.501Z,59.01
2022-08-19T08:31:31.792Z,58.58
2022-08-19T08:33:50.650Z,57.75
2022-08-19T08:36:07.589Z,55.33
2022-08-19T08:38:24.828Z,55.79
2022-08-19T08:40:45.197Z,56.79
2022-08-19T08:45:24.354Z,55.56
2022-08-19T08:47:42.097Z,55.55
2022-08-19T08:50:00.146Z,55.26
2022-08-19T08:52:17.474Z,54.34
2022-08-19T08:54:34.860Z,53.41
2022-08-19T08:56:52.619Z,52.37
2022-08-19T08:59:10.720Z,52.07
2022-08-19T09:01:30.444Z,52.02
2022-08-19T09:03:48.162Z,52.07
2022-08-19T09:06:05.444Z,51.30
2022-08-19T09:08:30.297Z,51.18
2022-08-19T09:10:47.874Z,50.65
2022-08-19T09:13:12.532Z,49.83
2022-08-19T09:15:33.378Z,50.59
2022-08-19T09:17:51.076Z,49.81
2022-08-19T09:20:09.088Z,50.27
2022-08-19T09:22:27.278Z,49.85
2022-08-19T09:24:45.672Z,50.17
2022-08-19T09:27:05.572Z,49.43
2022-08-19T09:29:35.727Z,49.07
2022-08-19T09:31:52.838Z,47.03
2022-08-19T09:34:21.490Z,47.70
2022-08-19T09:36:39.049Z,46.25
2022-08-19T09:38:56.694Z,46.76
2022-08-19T09:41:15.902Z,46.47
2022-08-19T09:43:44.501Z,44.84
2022-08-19T09:46:04.919Z,45.64
2022-08-19T09:48:23.673Z,46.28
2022-08-19T09:50:51.914Z,45.87
2022-08-19T09:53:09.596Z,45.43
2022-08-19T09:55:31.886Z,45.58
2022-08-19T09:57:49.930Z,44.85
2022-08-19T10:00:07.932Z,45.54
2022-08-19T10:02:24.858Z,45.59
2022-08-19T10:04:46.035Z,45.87
2022-08-19T10:07:04.397Z,44.49
2022-08-19T10:09:33.513Z,44.68
2022-08-19T10:11:54.966Z,44.92
2022-08-19T10:14:12.176Z,44.71
2022-08-19T10:16:30.188Z,43.78
2022-08-19T10:18:49.622Z,44.61
2022-08-19T10:21:06.953Z,44.50
2022-08-19T10:23:27.018Z,44.11
2022-08-19T10:25:50.942Z,44.41
2022-08-19T10:28:10.640Z,44.78
2022-08-19T10:30:28.106Z,42.75
2022-08-19T10:32:46.356Z,41.52
2022-08-19T10:35:05.310Z,41.74
2022-08-19T10:37:23.966Z,42.45
2022-08-19T10:39:46.392Z,43.31
2022-08-19T10:42:06.713Z,44.02
2022-08-19T10:44:32.353Z,43.75
2022-08-19T10:46:49.763Z,44.31
2022-08-19T10:49:07.380Z,44.17
2022-08-19T10:51:24.797Z,44.73
2022-08-19T10:53:42.866Z,43.55
2022-08-19T10:56:00.144Z,43.88
2022-08-19T10:58:17.176Z,43.00
2022-08-19T11:00:34.501Z,44.27
2022-08-19T11:02:51.809Z,43.75
2022-08-19T11:05:13.650Z,43.70
2022-08-19T11:07:30.909Z,42.25
2022-08-19T11:09:47.905Z,40.41
2022-08-19T11:12:05.259Z,41.26
2022-08-19T11:14:23.298Z,42.41
2022-08-19T11:16:43.515Z,42.17
2022-08-19T11:19:00.805Z,41.92
2022-08-19T11:21:19.111Z,41.81
2022-08-19T11:23:36.557Z,41.96
2022-08-19T11:25:53.675Z,41.33
2022-08-19T11:28:10.847Z,41.39
2022-08-19T11:30:31.162Z,41.02
2022-08-19T11:32:49.552Z,40.67
2022-08-19T11:35:06.897Z,40.06
2022-08-19T11:37:24.154Z,37.89
2022-08-19T11:39:41.239Z,38.65
2022-08-19T11:41:58.589Z,38.91
2022-08-19T11:44:15.452Z,38.77
2022-08-19T11:46:32.441Z,38.06
2022-08-19T11:48:49.584Z,38.13
2022-08-19T11:51:07.017Z,38.11
2022-08-19T11:53:24.158Z,39.18
2022-08-19T11:55:43.433Z,38.73
2022-08-19T11:58:01.562Z,37.50
2022-08-19T12:00:18.857Z,38.18
2022-08-19T12:02:38.701Z,38.59
2022-08-19T12:04:56.005Z,38.64
2022-08-19T12:07:12.996Z,38.85
2022-08-19T12:09:31.098Z,39.14
2022-08-19T12:11:49.465Z,38.65
2022-08-19T12:14:06.430Z,39.06
2022-08-19T12:16:26.411Z,38.80
2022-08-19T12:18:43.778Z,37.37
2022-08-19T12:21:00.927Z,37.89
2022-08-19T12:23:18.246Z,38.93
2022-08-19T12:25:35.241Z,38.64
2022-08-19T12:27:57.226Z,38.70
2022-08-19T12:30:14.824Z,38.53
2022-08-19T12:32:32.088Z,38.62
2022-08-19T12:34:49.648Z,38.44
2022-08-19T12:37:06.775Z,38.60
2022-08-19T12:39:24.039Z,39.24
2022-08-19T12:41:49.178Z,39.37
2022-08-19T12:44:12.122Z,39.11
2022-08-19T12:46:31.728Z,39.72
2022-08-19T12:48:48.823Z,40.04
2022-08-19T12:51:11.125Z,38.54
2022-08-19T12:53:29.008Z,37.47
2022-08-19T12:55:47.909Z,36.02
2022-08-19T12:58:06.127Z,36.62
2022-08-19T13:00:23.445Z,37.23
2022-08-19T13:02:41.909Z,37.80
2022-08-19T13:04:59.118Z,37.52
2022-08-19T13:07:16.188Z,37.85
2022-08-19T13:09:36.230Z,37.72
2022-08-19T13:11:53.271Z,38.82
2022-08-19T13:14:10.379Z,39.72
2022-08-19T13:16:27.656Z,38.60
2022-08-19T13:18:44.838Z,39.27
2022-08-19T13:21:02.179Z,38.99
2022-08-19T13:23:19.526Z,38.79
2022-08-19T13:25:37.937Z,38.09
2022-08-19T13:27:55.146Z,37.74
2022-08-19T13:30:12.198Z,38.70
2022-08-19T13:32:30.671Z,39.11
2022-08-19T13:34:47.877Z,38.71
2022-08-19T13:37:05.075Z,38.46
2022-08-19T13:39:22.285Z,37.89
2022-08-19T13:41:41.031Z,38.17
2022-08-19T13:43:58.279Z,37.96
2022-08-19T13:46:16.802Z,37.42
2022-08-19T13:48:33.855Z,36.32
2022-08-19T13:50:50.853Z,36.51
2022-08-19T13:53:08.183Z,36.87
2022-08-19T13:55:25.435Z,37.10
2022-08-19T13:57:42.813Z,38.77
2022-08-19T13:59:59.749Z,39.13
2022-08-19T14:02:18.123Z,38.66
2022-08-19T14:04:35.153Z,37.96
2022-08-19T14:06:52.162Z,37.66
2022-08-19T14:09:09.422Z,37.09
2022-08-19T14:11:26.452Z,36.12
2022-08-19T14:13:43.476Z,36.41
2022-08-19T14:16:00.767Z,37.31
2022-08-19T14:18:18.764Z,36.76
2022-08-19T14:20:35.822Z,37.26
2022-08-19T14:22:53.977Z,36.61
2022-08-19T14:25:11.162Z,36.15
2022-08-19T14:27:28.427Z,35.02
2022-08-19T14:29:45.662Z,34.99
2022-08-19T14:32:02.759Z,34.86
2022-08-19T14:34:20.057Z,34.99
2022-08-19T14:36:39.251Z,35.02
2022-08-19T14:38:56.697Z,34.00
2022-08-19T14:41:14.014Z,34.46
2022-08-19T14:43:30.945Z,33.16
2022-08-19T14:45:47.966Z,32.80
2022-08-19T14:48:07.222Z,33.85
2022-08-19T14:50:25.159Z,33.03
2022-08-19T14:52:42.250Z,33.05
2022-08-19T14:54:59.352Z,32.93
2022-08-19T14:57:17.291Z,32.41
2022-08-19T14:59:34.598Z,32.42
2022-08-19T15:01:54.688Z,33.17
2022-08-19T15:04:11.753Z,31.55
2022-08-19T15:06:30.035Z,32.30
2022-08-19T15:08:47.363Z,32.59
2022-08-19T15:11:04.303Z,31.25
2022-08-19T15:13:22.311Z,31.22
2022-08-19T15:15:40.349Z,31.74
2022-08-19T15:17:57.863Z,31.72
2022-08-19T15:20:15.375Z,31.62
2022-08-19T15:22:32.719Z,32.96
2022-08-19T15:24:50.025Z,33.27
2022-08-19T15:27:07.097Z,32.91
2022-08-19T15:29:24.097Z,31.98
2022-08-19T15:31:41.127Z,32.84
2022-08-19T15:33:58.218Z,32.51
2022-08-19T15:36:16.741Z,32.59
2022-08-19T15:38:39.542Z,32.74
2022-08-19T15:40:58.189Z,32.41
2022-08-19T15:43:15.494Z,32.84
2022-08-19T15:45:32.518Z,33.71
2022-08-19T15:47:49.871Z,32.77
2022-08-19T15:50:07.140Z,31.75
2022-08-19T15:52:29.107Z,32.89
2022-08-19T15:54:46.440Z,32.63
2022-08-19T15:57:04.476Z,32.82
2022-08-19T15:59:21.442Z,32.22
2022-08-19T16:01:41.007Z,33.13
2022-08-19T16:03:58.183Z,33.35
2022-08-19T16:06:15.238Z,33.16
2022-08-19T16:08:33.533Z,33.10
2022-08-19T16:11:06.100Z,32.36
2022-08-19T16:13:23.138Z,33.35
2022-08-19T16:15:40.447Z,33.21
2022-08-19T16:17:57.940Z,34.18
2022-08-19T16:20:16.167Z,32.68
2022-08-19T16:22:34.506Z,33.88
2022-08-19T16:24:51.467Z,34.13
2022-08-19T16:27:08.501Z,34.71
2022-08-19T16:29:33.767Z,35.15
2022-08-19T16:31:52.195Z,35.02
2022-08-19T16:34:09.232Z,35.00
2022-08-19T16:36:26.600Z,34.85
2022-08-19T16:38:45.222Z,35.61
2022-08-19T16:41:03.191Z,36.93
2022-08-19T16:43:20.257Z,38.05
2022-08-19T16:45:37.295Z,37.68
2022-08-19T16:47:54.692Z,37.79
2022-08-19T16:50:12.002Z,38.63
2022-08-19T16:52:28.975Z,38.19
2022-08-19T16:54:46.870Z,38.06
2022-08-19T16:57:03.895Z,38.38
2022-08-19T16:59:22.166Z,39.36
2022-08-19T17:01:39.443Z,38.87
2022-08-19T17:03:56.872Z,40.21
2022-08-19T17:06:19.025Z,40.61
2022-08-19T17:08:39.450Z,40.41
2022-08-19T17:11:16.968Z,40.26
2022-08-19T17:13:33.949Z,40.84
2022-08-19T17:15:51.234Z,41.07
2022-08-19T17:18:08.200Z,41.08
2022-08-19T17:20:25.336Z,42.07
2022-08-19T17:22:42.379Z,42.68
2022-08-19T17:24:59.368Z,42.52
2022-08-19T17:27:16.632Z,42.55
2022-08-19T17:29:33.693Z,43.28
2022-08-19T17:31:50.946Z,43.02
2022-08-19T17:34:07.980Z,43.48
2022-08-19T17:36:27.597Z,44.27
2022-08-19T17:38:44.550Z,44.18
2022-08-19T17:41:01.829Z,44.20
2022-08-19T17:43:19.723Z,44.79
2022-08-19T17:45:50.388Z,45.61
2022-08-19T17:48:07.350Z,45.56
2022-08-19T17:50:24.695Z,45.66
2022-08-19T17:52:41.732Z,45.74
2022-08-19T17:54:58.736Z,46.10
2022-08-19T17:57:16.014Z,46.01
2022-08-19T17:59:33.035Z,46.36
2022-08-19T18:01:53.705Z,46.66
2022-08-19T18:04:11.393Z,45.85
2022-08-19T18:06:29.440Z,47.25
2022-08-19T18:08:46.431Z,47.14
2022-08-19T18:11:03.659Z,46.81
2022-08-19T18:13:20.697Z,46.57
2022-08-19T18:15:38.064Z,47.28
2022-08-19T18:17:58.966Z,47.10
2022-08-19T18:20:16.003Z,47.68
2022-08-19T18:22:33.282Z,47.75
2022-08-19T18:24:50.302Z,47.60
2022-08-19T18:27:07.658Z,47.84
2022-08-19T18:29:24.635Z,48.85
2022-08-19T18:31:41.580Z,48.39
2022-08-19T18:33:58.695Z,48.56
2022-08-19T18:36:24.213Z,48.45
2022-08-19T18:38:50.089Z,49.20
2022-08-19T18:41:08.118Z,49.62
2022-08-19T18:43:25.123Z,49.80
2022-08-19T18:45:43.587Z,50.10
2022-08-19T18:48:00.732Z,50.42
2022-08-19T18:50:17.993Z,49.32
2022-08-19T18:52:35.780Z,50.34
2022-08-19T18:54:53.059Z,50.23
2022-08-19T18:57:10.367Z,50.23
2022-08-19T18:59:29.005Z,50.96
2022-08-19T19:01:46.127Z,50.90
2022-08-19T19:04:03.252Z,50.88
2022-08-19T19:06:21.580Z,51.83
2022-08-19T19:08:38.480Z,51.45
2022-08-19T19:10:55.492Z,51.11
2022-08-19T19:13:12.780Z,52.13
2022-08-19T19:15:30.545Z,52.10
2022-08-19T19:17:47.705Z,51.19
2022-08-19T19:20:04.776Z,51.47
2022-08-19T19:22:22.134Z,52.35
2022-08-19T19:24:39.240Z,51.76
2022-08-19T19:26:56.293Z,52.97
2022-08-19T19:29:13.601Z,53.22
2022-08-19T19:31:30.692Z,52.40
2022-08-19T19:33:47.832Z,53.18
2022-08-19T19:36:05.824Z,53.48
2022-08-19T19:38:22.936Z,53.77
2022-08-19T19:40:40.905Z,53.18
2022-08-19T19:42:58.224Z,53.70
2022-08-19T19:45:15.170Z,53.07
2022-08-19T19:47:32.241Z,53.94
2022-08-19T19:50:12.681Z,53.14
2022-08-19T19:52:27.192Z,53.71
2022-08-19T19:54:47.910Z,54.12
2022-08-19T19:57:05.232Z,55.40
2022-08-19T19:59:22.286Z,55.23
2022-08-19T20:01:39.649Z,54.98
2022-08-19T20:04:02.223Z,55.35
2022-08-19T20:06:19.257Z,55.81
2022-08-19T20:08:36.234Z,55.95
2022-08-19T20:10:54.523Z,56.25
2022-08-19T20:13:12.586Z,55.48
2022-08-19T20:15:29.824Z,55.81
2022-08-19T20:17:48.160Z,56.07
2022-08-19T20:20:05.523Z,56.61
2022-08-19T20:22:22.845Z,57.30
2022-08-19T20:24:40.155Z,57.13
2022-08-19T20:26:57.384Z,57.00
2022-08-19T20:29:38.049Z,57.26
2022-08-19T20:31:59.086Z,57.52
2022-08-19T20:34:17.417Z,57.55
2022-08-19T20:36:37.613Z,58.39
2022-08-19T20:38:54.680Z,58.42
2022-08-19T20:41:12.915Z,58.04
2022-08-19T20:43:30.301Z,59.09
2022-08-19T20:45:47.252Z,58.16
2022-08-19T20:48:05.247Z,58.87
2022-08-19T20:50:22.280Z,58.94
2022-08-19T20:52:39.227Z,58.65
2022-08-19T20:54:56.202Z,59.29
2022-08-19T20:57:13.196Z,58.55
2022-08-19T20:59:30.496Z,59.88
2022-08-19T21:01:47.801Z,59.86
2022-08-19T21:04:04.984Z,59.69
2022-08-19T21:06:23.126Z,60.38
2022-08-19T21:08:40.529Z,61.65
2022-08-19T21:10:57.868Z,60.04
2022-08-19T21:13:14.805Z,61.93
2022-08-19T21:15:32.405Z,61.05
2022-08-19T21:17:49.397Z,62.36
2022-08-19T21:20:06.449Z,61.63
2022-08-19T21:22:23.528Z,62.39
2022-08-19T21:24:41.054Z,62.01
2022-08-19T21:26:58.209Z,62.89
2022-08-19T21:29:15.267Z,63.39
2022-08-19T21:31:32.417Z,63.44
2022-08-19T21:33:50.748Z,63.46
2022-08-19T21:36:07.844Z,64.07
2022-08-19T21:38:25.201Z,63.51
2022-08-19T21:40:42.480Z,62.87
2022-08-19T21:42:59.928Z,63.90
2022-08-19T21:45:17.240Z,63.78
2022-08-19T21:47:34.454Z,64.03
2022-08-19T21:49:51.580Z,64.37
2022-08-19T21:52:08.743Z,64.09
2022-08-19T21:54:26.431Z,65.60
2022-08-19T21:56:55.106Z,66.19
2022-08-19T21:59:12.181Z,64.53
2022-08-19T22:01:30.221Z,63.99
2022-08-19T22:03:47.647Z,64.73
2022-08-19T22:06:04.767Z,65.10
2022-08-19T22:08:23.049Z,64.74
2022-08-19T22:10:40.027Z,65.42
2022-08-19T22:12:57.058Z,66.43
2022-08-19T22:15:14.396Z,66.53
2022-08-19T22:17:33.013Z,66.17
2022-08-19T22:19:50.397Z,66.33
2022-08-19T22:22:07.471Z,66.58
2022-08-19T22:24:24.606Z,66.74
2022-08-19T22:26:41.896Z,66.40
2022-08-19T22:28:59.484Z,67.05
2022-08-19T22:31:19.401Z,65.41
2022-08-19T22:33:36.375Z,67.20
2022-08-19T22:35:53.397Z,65.93
2022-08-19T22:38:10.421Z,67.68
2022-08-19T22:40:27.462Z,66.69
2022-08-19T22:42:44.540Z,66.94
2022-08-19T22:45:01.892Z,66.73
2022-08-19T22:47:19.840Z,67.35
2022-08-19T22:49:36.985Z,67.18
2022-08-19T22:51:55.674Z,66.55
2022-08-19T22:54:12.972Z,66.05
2022-08-19T22:56:30.271Z,68.10
2022-08-19T22:58:47.232Z,67.91
2022-08-19T23:01:08.329Z,67.83
2022-08-19T23:03:25.457Z,67.25
2022-08-19T23:05:45.722Z,66.90
2022-08-19T23:08:03.984Z,67.81
2022-08-19T23:10:23.225Z,68.04
2022-08-19T23:12:44.555Z,67.22
2022-08-19T23:15:01.688Z,67.40
2022-08-19T23:17:20.642Z,68.18
2022-08-19T23:19:37.843Z,66.79
2022-08-19T23:21:54.802Z,67.44
2022-08-19T23:24:12.399Z,68.36
2022-08-19T23:26:33.866Z,68.61
2022-08-19T23:28:52.666Z,68.08
2022-08-19T23:31:09.827Z,68.00
2022-08-19T23:33:46.669Z,68.61
2022-08-19T23:36:04.101Z,67.10
2022-08-19T23:38:21.566Z,68.50
2022-08-19T23:40:39.168Z,67.28
2022-08-19T23:42:57.443Z,68.78
2022-08-19T23:45:15.134Z,68.05
2022-08-19T23:47:40.681Z,68.13
2022-08-19T23:49:58.491Z,68.01
2022-08-19T23:52:15.558Z,67.47
2022-08-19T23:54:42.683Z,67.83
2022-08-19T23:57:02.041Z,68.68
2022-08-19T23:59:19.322Z,68.03
